Ambrosia Lake, New Mexico
Current Conditions -  °F | °C
As of 9:15 AM on Saturday 20 Dec 2014 (Local Time) from KGNT Reporting Station
Scattered Clouds Scattered Clouds  
Wind Chill: 17°   Ceiling: Unl
Heat Index: 25°   Visibility: 10mi
Dew Point: 23°   Wind: 7mph
Humidity: 93%   Direction: 330°NNW
Pressure: 30.21"   Gusts: NA
Location:  35.2644°N, 107.733°W
Report Text: KGNT 201615Z AUTO 33006KT 10SM SCT120 M04/M05 A3021 RMK AO2 T10401050
Loading
Personal Weather Stations






























Interactive Weather Map New forecast layout! Learn more

10-Day Weather Forecast

Advertisements
Track Severe Weather on mobile